createdAt,value
2023-05-10T00:00:32.715Z,58.60
2023-05-10T00:03:11.238Z,58.55
2023-05-10T00:05:39.520Z,58.67
2023-05-10T00:08:07.691Z,58.80
2023-05-10T00:10:35.769Z,58.84
2023-05-10T00:13:03.839Z,58.87
2023-05-10T00:15:31.951Z,58.79
2023-05-10T00:18:00.091Z,58.84
2023-05-10T00:20:28.158Z,58.84
2023-05-10T00:22:56.139Z,58.85
2023-05-10T00:25:24.251Z,58.88
2023-05-10T00:27:53.260Z,58.94
2023-05-10T00:30:21.416Z,59.14
2023-05-10T00:32:50.950Z,59.24
2023-05-10T00:35:18.975Z,59.35
2023-05-10T00:37:46.898Z,59.29
2023-05-10T00:40:15.397Z,59.31
2023-05-10T00:42:44.977Z,59.35
2023-05-10T00:45:13.039Z,59.41
2023-05-10T00:47:41.820Z,59.44
2023-05-10T00:50:10.724Z,59.39
2023-05-10T00:52:38.892Z,59.49
2023-05-10T00:55:12.539Z,59.63
2023-05-10T00:57:40.938Z,59.63
2023-05-10T01:00:09.314Z,59.74
2023-05-10T01:02:37.334Z,59.73
2023-05-10T01:05:06.411Z,59.72
2023-05-10T01:07:34.411Z,59.87
2023-05-10T01:10:02.529Z,59.93
2023-05-10T01:12:31.449Z,60.08
2023-05-10T01:15:01.061Z,60.06
2023-05-10T01:17:29.119Z,60.26
2023-05-10T01:19:57.126Z,60.63
2023-05-10T01:23:11.858Z,60.84
2023-05-10T01:26:04.388Z,60.58
2023-05-10T01:28:47.508Z,60.74
2023-05-10T01:32:01.654Z,60.78
2023-05-10T01:34:43.742Z,60.86
2023-05-10T01:37:26.371Z,61.11
2023-05-10T01:40:20.886Z,61.18
2023-05-10T01:42:53.457Z,61.38
2023-05-10T01:45:29.996Z,61.75
2023-05-10T01:48:06.763Z,61.88
2023-05-10T01:50:38.588Z,61.92
2023-05-10T01:53:09.527Z,65.32
2023-05-10T01:55:47.537Z,69.95
2023-05-10T01:58:21.402Z,65.69
2023-05-10T02:00:51.620Z,58.62
2023-05-10T02:03:24.672Z,54.96
2023-05-10T02:05:54.602Z,54.87
2023-05-10T02:08:24.332Z,55.31
2023-05-10T02:10:54.687Z,56.02
2023-05-10T02:13:25.661Z,56.40
2023-05-10T02:15:56.119Z,57.15
2023-05-10T02:18:26.935Z,57.99
2023-05-10T02:20:56.507Z,58.19
2023-05-10T02:23:26.178Z,58.54
2023-05-10T02:25:56.291Z,59.28
2023-05-10T02:28:27.017Z,59.62
2023-05-10T02:30:56.327Z,60.33
2023-05-10T02:33:25.462Z,60.98
2023-05-10T02:35:55.634Z,61.67
2023-05-10T02:38:24.324Z,62.02
2023-05-10T02:40:53.543Z,64.70
2023-05-10T02:43:24.319Z,66.57
2023-05-10T02:45:52.489Z,63.04
2023-05-10T02:48:20.473Z,55.97
2023-05-10T02:50:53.680Z,53.42
2023-05-10T02:53:32.944Z,53.96
2023-05-10T02:56:05.394Z,55.00
2023-05-10T02:58:33.325Z,56.36
2023-05-10T03:01:01.436Z,56.51
2023-05-10T03:03:29.599Z,57.09
2023-05-10T03:05:59.013Z,57.73
2023-05-10T03:08:27.339Z,58.39
2023-05-10T03:11:18.181Z,59.79
2023-05-10T03:13:50.018Z,59.49
2023-05-10T03:16:28.723Z,60.21
2023-05-10T03:19:14.549Z,61.02
2023-05-10T03:21:46.208Z,65.11
2023-05-10T03:24:16.688Z,67.86
2023-05-10T03:26:46.777Z,63.35
2023-05-10T03:29:19.145Z,57.22
2023-05-10T03:31:47.438Z,54.26
2023-05-10T03:34:15.946Z,54.44
2023-05-10T03:36:43.921Z,55.33
2023-05-10T03:39:11.969Z,56.34
2023-05-10T03:41:39.928Z,56.77
2023-05-10T03:44:07.926Z,57.40
2023-05-10T03:46:35.876Z,58.11
2023-05-10T03:49:04.501Z,58.69
2023-05-10T03:51:32.998Z,59.11
2023-05-10T03:54:00.952Z,59.61
2023-05-10T03:56:29.371Z,60.21
2023-05-10T03:58:57.446Z,60.40
2023-05-10T04:01:25.399Z,61.04
2023-05-10T04:03:53.502Z,63.38
2023-05-10T04:06:21.526Z,68.40
2023-05-10T04:08:50.073Z,65.40
2023-05-10T04:11:18.092Z,59.14
2023-05-10T04:13:46.008Z,55.24
2023-05-10T04:16:14.076Z,55.17
2023-05-10T04:18:42.091Z,55.60
2023-05-10T04:21:13.826Z,56.69
2023-05-10T04:23:42.231Z,56.67
2023-05-10T04:26:10.161Z,58.32
2023-05-10T04:28:38.144Z,58.36
2023-05-10T04:31:07.926Z,58.66
2023-05-10T04:33:36.692Z,61.70
2023-05-10T04:36:05.016Z,65.22
2023-05-10T04:38:32.929Z,64.56
2023-05-10T04:41:11.550Z,57.96
2023-05-10T04:43:39.666Z,56.26
2023-05-10T04:46:08.696Z,56.16
2023-05-10T04:48:36.826Z,56.18
2023-05-10T04:51:05.200Z,55.87
2023-05-10T04:53:33.764Z,55.76
2023-05-10T04:56:01.926Z,55.70
2023-05-10T04:58:29.899Z,56.10
2023-05-10T05:00:57.991Z,56.02
2023-05-10T05:03:26.060Z,55.92
2023-05-10T05:05:54.065Z,56.10
2023-05-10T05:08:22.183Z,55.32
2023-05-10T05:10:51.462Z,55.42
2023-05-10T05:13:19.791Z,55.06
2023-05-10T05:15:47.958Z,54.98
2023-05-10T05:18:16.051Z,54.87
2023-05-10T05:20:44.111Z,54.75
2023-05-10T05:23:12.109Z,54.67
2023-05-10T05:25:39.986Z,54.46
2023-05-10T05:28:07.955Z,54.28
2023-05-10T05:30:35.902Z,53.85
2023-05-10T05:33:04.137Z,54.15
2023-05-10T05:35:32.149Z,53.67
2023-05-10T05:38:00.181Z,53.03
2023-05-10T05:40:28.165Z,53.00
2023-05-10T05:42:56.448Z,52.08
2023-05-10T05:45:24.422Z,52.16
2023-05-10T05:47:52.533Z,52.38
2023-05-10T05:50:20.424Z,52.32
2023-05-10T05:52:48.265Z,52.78
2023-05-10T05:55:16.348Z,52.99
2023-05-10T05:57:44.458Z,53.27
2023-05-10T06:00:12.863Z,53.53
2023-05-10T06:02:41.014Z,53.43
2023-05-10T06:05:09.600Z,53.52
2023-05-10T06:07:37.621Z,54.00
2023-05-10T06:10:06.999Z,53.91
2023-05-10T06:12:35.086Z,53.77
2023-05-10T06:15:03.953Z,53.82
2023-05-10T06:17:32.101Z,53.78
2023-05-10T06:20:00.145Z,53.89
2023-05-10T06:22:28.798Z,53.96
2023-05-10T06:24:56.689Z,53.77
2023-05-10T06:27:24.594Z,53.55
2023-05-10T06:29:59.280Z,53.24
2023-05-10T06:32:33.676Z,53.04
2023-05-10T06:35:01.750Z,52.94
2023-05-10T06:37:29.636Z,53.04
2023-05-10T06:39:57.511Z,52.83
2023-05-10T06:42:26.549Z,52.81
2023-05-10T06:44:54.509Z,52.73
2023-05-10T06:47:23.243Z,52.56
2023-05-10T06:49:51.129Z,52.36
2023-05-10T06:52:19.082Z,52.19
2023-05-10T06:54:46.936Z,52.13
2023-05-10T06:57:30.030Z,52.26
2023-05-10T06:59:59.937Z,52.18
2023-05-10T07:02:28.283Z,52.13
2023-05-10T07:04:57.933Z,51.55
2023-05-10T07:07:26.828Z,51.05
2023-05-10T07:09:54.770Z,50.53
2023-05-10T07:12:22.768Z,50.44
2023-05-10T07:14:50.739Z,50.02
2023-05-10T07:17:18.770Z,49.91
2023-05-10T07:19:46.852Z,49.31
2023-05-10T07:22:14.762Z,49.41
2023-05-10T07:24:42.790Z,49.05
2023-05-10T07:27:10.807Z,48.62
2023-05-10T07:29:38.742Z,48.51
2023-05-10T07:32:07.127Z,48.65
2023-05-10T07:34:35.357Z,48.29
2023-05-10T07:37:03.301Z,48.07
2023-05-10T07:39:31.254Z,47.90
2023-05-10T07:41:59.355Z,47.03
2023-05-10T07:44:27.216Z,46.75
2023-05-10T07:46:55.177Z,46.84
2023-05-10T07:49:25.219Z,46.95
2023-05-10T07:51:53.288Z,46.09
2023-05-10T07:54:21.635Z,46.08
2023-05-10T07:56:49.583Z,46.09
2023-05-10T07:59:18.748Z,46.17
2023-05-10T08:01:46.724Z,45.94
2023-05-10T08:04:14.707Z,45.30
2023-05-10T08:06:42.830Z,44.39
2023-05-10T08:09:12.020Z,44.34
2023-05-10T08:11:40.019Z,44.30
2023-05-10T08:14:08.017Z,43.84
2023-05-10T08:16:36.106Z,43.25
2023-05-10T08:19:04.331Z,43.18
2023-05-10T08:21:32.461Z,43.33
2023-05-10T08:24:00.377Z,42.06
2023-05-10T08:26:28.339Z,41.57
2023-05-10T08:28:56.239Z,42.78
2023-05-10T08:31:24.403Z,42.74
2023-05-10T08:33:53.790Z,41.99
2023-05-10T08:36:23.003Z,41.09
2023-05-10T08:38:56.007Z,40.22
2023-05-10T08:41:26.974Z,39.23
2023-05-10T08:43:55.813Z,38.61
2023-05-10T08:46:24.247Z,39.36
2023-05-10T08:48:53.285Z,38.67
2023-05-10T08:51:27.735Z,38.53
2023-05-10T08:53:56.447Z,39.12
2023-05-10T08:56:25.272Z,38.30
2023-05-10T08:58:53.669Z,37.91
2023-05-10T09:01:22.512Z,37.33
2023-05-10T09:03:51.649Z,37.10
2023-05-10T09:06:19.797Z,36.99
2023-05-10T09:08:48.888Z,37.27
2023-05-10T09:11:18.448Z,37.08
2023-05-10T09:13:48.948Z,37.68
2023-05-10T09:16:21.737Z,36.98
2023-05-10T09:18:50.777Z,36.85
2023-05-10T09:21:21.019Z,36.23
2023-05-10T09:23:51.372Z,35.82
2023-05-10T09:26:24.279Z,36.23
2023-05-10T09:28:53.644Z,35.88
2023-05-10T09:31:21.770Z,34.97
2023-05-10T09:33:50.880Z,35.02
2023-05-10T09:36:18.946Z,34.69
2023-05-10T09:38:52.811Z,34.40
2023-05-10T09:41:22.895Z,34.86
2023-05-10T09:43:52.470Z,34.58
2023-05-10T09:46:20.660Z,34.96
2023-05-10T09:48:49.365Z,35.02
2023-05-10T09:51:36.963Z,34.60
2023-05-10T09:54:17.694Z,34.76
2023-05-10T09:56:46.000Z,34.70
2023-05-10T09:59:14.111Z,33.53
2023-05-10T10:01:42.382Z,33.65
2023-05-10T10:04:12.177Z,33.38
2023-05-10T10:06:41.008Z,32.72
2023-05-10T10:09:10.609Z,33.80
2023-05-10T10:11:40.182Z,33.58
2023-05-10T10:14:08.097Z,33.38
2023-05-10T10:16:36.091Z,32.42
2023-05-10T10:19:04.258Z,32.76
2023-05-10T10:21:33.774Z,33.60
2023-05-10T10:24:02.362Z,33.87
2023-05-10T10:26:30.355Z,33.68
2023-05-10T10:29:05.676Z,34.06
2023-05-10T10:32:04.189Z,33.46
2023-05-10T10:34:33.158Z,33.36
2023-05-10T10:37:06.526Z,32.75
2023-05-10T10:39:37.837Z,32.26
2023-05-10T10:42:06.286Z,31.89
2023-05-10T10:44:34.933Z,31.84
2023-05-10T10:47:09.477Z,31.50
2023-05-10T10:49:46.794Z,31.78
2023-05-10T10:52:36.809Z,32.41
2023-05-10T10:55:05.292Z,33.50
2023-05-10T10:58:01.649Z,33.29
2023-05-10T11:00:32.193Z,33.09
2023-05-10T11:03:09.762Z,33.13
2023-05-10T11:05:42.912Z,32.72
2023-05-10T11:08:13.845Z,31.72
2023-05-10T11:10:54.088Z,31.49
2023-05-10T11:13:32.312Z,32.15
2023-05-10T11:16:11.643Z,32.03
2023-05-10T11:18:39.847Z,31.69
2023-05-10T11:21:11.677Z,31.09
2023-05-10T11:23:50.267Z,31.22
2023-05-10T11:26:19.808Z,30.89
2023-05-10T11:28:49.902Z,30.66
2023-05-10T11:31:18.921Z,30.51
2023-05-10T11:33:51.675Z,30.02
2023-05-10T11:36:22.253Z,29.75
2023-05-10T11:38:50.182Z,30.04
2023-05-10T11:41:20.135Z,30.23
2023-05-10T11:43:50.511Z,29.99
2023-05-10T11:46:21.503Z,29.76
2023-05-10T11:48:59.859Z,29.42
2023-05-10T11:51:28.226Z,29.03
2023-05-10T11:53:58.058Z,29.40
2023-05-10T11:56:27.955Z,28.66
2023-05-10T11:58:58.501Z,28.71
2023-05-10T12:01:28.212Z,28.37
2023-05-10T12:04:00.877Z,28.46
2023-05-10T12:06:32.298Z,29.02
2023-05-10T12:09:00.678Z,28.66
2023-05-10T12:11:29.722Z,28.61
2023-05-10T12:13:57.826Z,28.85
2023-05-10T12:16:29.487Z,28.23
2023-05-10T12:18:59.985Z,28.40
2023-05-10T12:21:31.677Z,27.94
2023-05-10T12:24:04.424Z,27.81
2023-05-10T12:26:33.147Z,27.91
2023-05-10T12:29:18.609Z,27.49
2023-05-10T12:31:59.830Z,27.81
2023-05-10T12:34:32.507Z,27.46
2023-05-10T12:37:01.858Z,27.70
2023-05-10T12:39:47.252Z,26.98
2023-05-10T12:42:15.279Z,27.06
2023-05-10T12:44:43.262Z,26.72
2023-05-10T12:47:11.928Z,27.67
2023-05-10T12:49:39.891Z,27.16
2023-05-10T12:52:07.813Z,26.77
2023-05-10T12:54:36.650Z,27.06
2023-05-10T12:57:04.625Z,27.10
2023-05-10T12:59:32.609Z,26.92
2023-05-10T13:02:00.625Z,26.89
2023-05-10T13:04:28.660Z,26.78
2023-05-10T13:07:00.056Z,26.58
2023-05-10T13:09:30.771Z,26.59
2023-05-10T13:11:58.861Z,26.25
2023-05-10T13:14:26.982Z,26.46
2023-05-10T13:16:55.257Z,27.11
2023-05-10T13:19:23.240Z,26.82
2023-05-10T13:21:51.260Z,26.81
2023-05-10T13:24:19.270Z,26.82
2023-05-10T13:26:47.261Z,27.14
2023-05-10T13:29:16.895Z,26.54
2023-05-10T13:31:45.020Z,26.89
2023-05-10T13:34:12.975Z,26.83
2023-05-10T13:36:40.966Z,26.96
2023-05-10T13:39:09.578Z,26.33
2023-05-10T13:41:38.179Z,26.70
2023-05-10T13:44:06.171Z,26.89
2023-05-10T13:46:34.170Z,26.55
2023-05-10T13:49:02.199Z,26.55
2023-05-10T13:51:30.286Z,26.72
2023-05-10T13:53:59.267Z,27.77
2023-05-10T13:57:24.044Z,27.42
2023-05-10T14:00:11.407Z,27.22
2023-05-10T14:02:39.524Z,26.37
2023-05-10T14:05:07.882Z,26.47
2023-05-10T14:07:35.837Z,26.83
2023-05-10T14:10:04.046Z,26.29
2023-05-10T14:12:32.017Z,26.83
2023-05-10T14:14:59.906Z,27.23
2023-05-10T14:17:28.018Z,27.43
2023-05-10T14:19:55.943Z,26.79
2023-05-10T14:22:23.879Z,27.05
2023-05-10T14:24:51.880Z,26.88
2023-05-10T14:27:20.556Z,26.78
2023-05-10T14:29:48.792Z,26.75
2023-05-10T14:32:16.839Z,26.22
2023-05-10T14:34:44.830Z,26.07
2023-05-10T14:37:16.248Z,26.38
2023-05-10T14:39:44.389Z,26.47
2023-05-10T14:42:13.056Z,27.07
2023-05-10T14:44:41.212Z,27.00
2023-05-10T14:47:10.589Z,26.64
2023-05-10T14:49:40.022Z,26.57
2023-05-10T14:53:04.947Z,26.69
2023-05-10T14:56:09.670Z,26.48
2023-05-10T14:58:37.673Z,26.32
2023-05-10T15:01:06.089Z,25.91
2023-05-10T15:03:34.547Z,25.93
2023-05-10T15:06:03.053Z,25.97
2023-05-10T15:08:31.059Z,26.32
2023-05-10T15:10:59.201Z,26.43
2023-05-10T15:13:27.279Z,26.40
2023-05-10T15:15:55.913Z,26.64
2023-05-10T15:18:27.079Z,26.86
2023-05-10T15:20:56.459Z,26.74
2023-05-10T15:23:24.506Z,26.56
2023-05-10T15:25:56.790Z,26.47
2023-05-10T15:28:25.017Z,25.87
2023-05-10T15:30:53.150Z,25.64
2023-05-10T15:33:21.298Z,25.88
2023-05-10T15:35:49.401Z,26.22
2023-05-10T15:38:17.380Z,26.31
2023-05-10T15:40:47.372Z,26.40
2023-05-10T15:43:16.360Z,25.59
2023-05-10T15:45:44.355Z,25.63
2023-05-10T15:48:12.337Z,25.87
2023-05-10T15:50:41.374Z,26.27
2023-05-10T15:53:09.253Z,26.67
2023-05-10T15:55:37.592Z,26.76
2023-05-10T15:58:05.542Z,26.98
2023-05-10T16:00:33.612Z,27.28
2023-05-10T16:03:02.076Z,27.22
2023-05-10T16:05:33.608Z,27.10
2023-05-10T16:08:02.480Z,27.03
2023-05-10T16:10:33.436Z,26.38
2023-05-10T16:13:02.447Z,26.79
2023-05-10T16:15:30.335Z,27.38
2023-05-10T16:17:58.463Z,27.04
2023-05-10T16:20:27.056Z,27.04
2023-05-10T16:22:55.884Z,27.49
2023-05-10T16:25:23.763Z,27.75
2023-05-10T16:27:51.622Z,27.41
2023-05-10T16:30:20.839Z,27.42
2023-05-10T16:32:50.489Z,27.47
2023-05-10T16:35:18.606Z,27.55
2023-05-10T16:37:47.172Z,27.38
2023-05-10T16:40:15.162Z,27.90
2023-05-10T16:42:43.051Z,27.88
2023-05-10T16:45:11.426Z,28.11
2023-05-10T16:47:40.817Z,28.28
2023-05-10T16:50:09.145Z,28.44
2023-05-10T16:52:37.251Z,28.35
2023-05-10T16:55:05.628Z,28.24
2023-05-10T16:57:33.503Z,28.11
2023-05-10T17:00:01.552Z,28.35
2023-05-10T17:02:29.642Z,28.26
2023-05-10T17:04:57.748Z,27.89
2023-05-10T17:07:26.377Z,27.50
2023-05-10T17:09:54.538Z,26.60
2023-05-10T17:12:22.420Z,26.06
2023-05-10T17:14:50.490Z,25.50
2023-05-10T17:17:18.437Z,25.76
2023-05-10T17:19:46.385Z,25.26
2023-05-10T17:22:14.430Z,25.09
2023-05-10T17:24:43.483Z,25.39
2023-05-10T17:27:11.461Z,25.76
2023-05-10T17:29:39.379Z,25.51
2023-05-10T17:32:09.343Z,25.74
2023-05-10T17:34:38.766Z,25.95
2023-05-10T17:37:09.446Z,25.98
2023-05-10T17:39:38.699Z,26.36
2023-05-10T17:42:08.386Z,27.23
2023-05-10T17:44:36.240Z,27.80
2023-05-10T17:47:04.313Z,28.71
2023-05-10T17:49:32.212Z,29.57
2023-05-10T17:52:00.214Z,30.70
2023-05-10T17:54:28.377Z,31.73
2023-05-10T17:56:58.139Z,32.27
2023-05-10T17:59:26.004Z,33.13
2023-05-10T18:01:54.052Z,34.33
2023-05-10T18:04:21.989Z,34.71
2023-05-10T18:06:49.908Z,35.47
2023-05-10T18:09:20.194Z,36.76
2023-05-10T18:11:48.059Z,36.80
2023-05-10T18:14:20.546Z,37.49
2023-05-10T18:16:56.557Z,38.12
2023-05-10T18:19:25.318Z,38.82
2023-05-10T18:21:53.277Z,39.12
2023-05-10T18:24:36.976Z,39.30
2023-05-10T18:27:08.826Z,39.74
2023-05-10T18:29:37.246Z,40.15
2023-05-10T18:32:05.801Z,40.37
2023-05-10T18:34:34.007Z,41.15
2023-05-10T18:37:07.435Z,41.10
2023-05-10T18:39:39.272Z,41.78
2023-05-10T18:42:09.069Z,41.76
2023-05-10T18:44:37.022Z,42.02
2023-05-10T18:47:05.556Z,42.58
2023-05-10T18:49:33.534Z,42.88
2023-05-10T18:52:01.517Z,42.98
2023-05-10T18:54:30.146Z,43.45
2023-05-10T18:56:58.982Z,43.93
2023-05-10T18:59:28.055Z,44.30
2023-05-10T19:01:57.457Z,43.94
2023-05-10T19:04:25.947Z,43.59
2023-05-10T19:06:53.999Z,43.50
2023-05-10T19:09:22.335Z,43.50
2023-05-10T19:11:51.585Z,43.80
2023-05-10T19:14:20.150Z,43.49
2023-05-10T19:16:51.024Z,43.44
2023-05-10T19:19:19.618Z,43.60
2023-05-10T19:21:48.360Z,43.59
2023-05-10T19:24:16.669Z,43.76
2023-05-10T19:26:46.909Z,43.62
2023-05-10T19:29:14.974Z,43.72
2023-05-10T19:31:44.162Z,43.87
2023-05-10T19:34:12.158Z,43.72
2023-05-10T19:36:40.151Z,43.75
2023-05-10T19:39:08.053Z,44.11
2023-05-10T19:41:36.252Z,44.02
2023-05-10T19:44:04.229Z,43.96
2023-05-10T19:46:32.396Z,44.06
2023-05-10T19:49:00.389Z,44.06
2023-05-10T19:51:28.340Z,43.84
2023-05-10T19:53:56.229Z,43.88
2023-05-10T19:56:24.186Z,43.93
2023-05-10T19:58:52.129Z,43.94
2023-05-10T20:01:20.025Z,43.83
2023-05-10T20:03:48.100Z,43.72
2023-05-10T20:06:16.163Z,43.76
2023-05-10T20:08:44.092Z,43.87
2023-05-10T20:11:12.207Z,43.86
2023-05-10T20:13:40.067Z,43.79
2023-05-10T20:16:08.202Z,44.11
2023-05-10T20:18:37.401Z,44.05
2023-05-10T20:21:05.334Z,44.03
2023-05-10T20:23:33.273Z,44.04
2023-05-10T20:26:01.208Z,44.09
2023-05-10T20:28:29.734Z,44.09
2023-05-10T20:30:57.953Z,44.13
2023-05-10T20:33:25.999Z,44.10
2023-05-10T20:35:53.907Z,44.20
2023-05-10T20:38:24.156Z,44.29
2023-05-10T20:40:52.087Z,44.26
2023-05-10T20:43:21.471Z,44.41
2023-05-10T20:45:49.576Z,44.42
2023-05-10T20:48:17.657Z,44.53
2023-05-10T20:50:45.761Z,44.62
2023-05-10T20:53:14.864Z,44.81
2023-05-10T20:55:42.840Z,44.86
2023-05-10T20:58:10.803Z,44.98
2023-05-10T21:00:38.818Z,45.11
2023-05-10T21:03:06.831Z,45.18
2023-05-10T21:05:34.958Z,45.37
2023-05-10T21:08:02.933Z,45.42
2023-05-10T21:10:30.955Z,45.40
2023-05-10T21:12:58.887Z,45.57
2023-05-10T21:15:27.844Z,45.70
2023-05-10T21:17:55.859Z,45.85
2023-05-10T21:20:23.904Z,45.99
2023-05-10T21:22:51.888Z,46.11
2023-05-10T21:25:19.826Z,46.23
2023-05-10T21:27:48.041Z,46.37
2023-05-10T21:30:16.379Z,46.54
2023-05-10T21:32:44.629Z,46.66
2023-05-10T21:35:12.520Z,46.69
2023-05-10T21:37:40.350Z,46.85
2023-05-10T21:40:08.715Z,46.95
2023-05-10T21:42:36.609Z,47.40
2023-05-10T21:45:04.905Z,47.33
2023-05-10T21:47:32.924Z,47.46
2023-05-10T21:50:00.844Z,47.49
2023-05-10T21:52:28.743Z,47.62
2023-05-10T21:54:56.644Z,47.96
2023-05-10T21:57:24.597Z,48.16
2023-05-10T21:59:52.449Z,48.03
2023-05-10T22:02:20.466Z,48.45
2023-05-10T22:04:48.386Z,48.37
2023-05-10T22:07:17.087Z,48.54
2023-05-10T22:09:45.006Z,48.63
2023-05-10T22:12:13.102Z,48.91
2023-05-10T22:14:41.115Z,48.94
2023-05-10T22:17:09.158Z,48.88
2023-05-10T22:19:37.101Z,49.12
2023-05-10T22:22:05.076Z,49.35
2023-05-10T22:24:32.976Z,49.57
2023-05-10T22:27:01.994Z,49.45
2023-05-10T22:29:30.517Z,49.54
2023-05-10T22:31:58.905Z,49.51
2023-05-10T22:34:26.836Z,49.58
2023-05-10T22:36:54.753Z,49.78
2023-05-10T22:39:23.636Z,49.74
2023-05-10T22:41:51.596Z,49.81
2023-05-10T22:44:19.447Z,50.04
2023-05-10T22:46:47.375Z,50.11
2023-05-10T22:49:15.296Z,50.11
2023-05-10T22:51:43.196Z,50.11
2023-05-10T22:54:11.180Z,50.33
2023-05-10T22:56:39.188Z,50.31
2023-05-10T22:59:07.120Z,50.44
2023-05-10T23:01:35.096Z,50.53
2023-05-10T23:04:02.981Z,50.65
2023-05-10T23:06:30.856Z,50.69
2023-05-10T23:08:59.243Z,50.85
2023-05-10T23:11:27.134Z,50.88
2023-05-10T23:13:55.234Z,50.94
2023-05-10T23:16:23.564Z,50.95
2023-05-10T23:18:51.556Z,51.09
2023-05-10T23:21:19.457Z,51.12
2023-05-10T23:23:47.413Z,51.19
2023-05-10T23:26:15.524Z,51.21
2023-05-10T23:28:43.438Z,51.28
2023-05-10T23:31:11.661Z,51.20
2023-05-10T23:33:39.549Z,51.33
2023-05-10T23:36:07.673Z,51.36
2023-05-10T23:38:35.608Z,51.48
2023-05-10T23:41:03.763Z,51.58
2023-05-10T23:43:31.678Z,51.64
2023-05-10T23:45:59.782Z,51.76
2023-05-10T23:48:27.745Z,51.90
2023-05-10T23:50:55.688Z,51.99
2023-05-10T23:53:23.550Z,52.03
2023-05-10T23:55:51.599Z,52.04
2023-05-10T23:58:19.453Z,52.15
